sensor_id;sensor_type;location;lat;lon;timestamp;temperature;humidity
16976;DHT22;8604;48.148;-1.786;2022-08-19T00:01:29;18.80;99.90
16976;DHT22;8604;48.148;-1.786;2022-08-19T00:04:05;18.80;99.90
16976;DHT22;8604;48.148;-1.786;2022-08-19T00:06:34;18.70;99.90
16976;DHT22;8604;48.148;-1.786;2022-08-19T00:09:07;18.70;99.90
16976;DHT22;8604;48.148;-1.786;2022-08-19T00:11:37;18.70;99.90
16976;DHT22;8604;48.148;-1.786;2022-08-19T00:14:07;18.80;99.90
16976;DHT22;8604;48.148;-1.786;2022-08-19T00:16:37;18.70;99.90
16976;DHT22;8604;48.148;-1.786;2022-08-19T00:19:05;18.70;99.90
16976;DHT22;8604;48.148;-1.786;2022-08-19T00:21:34;18.70;99.90
16976;DHT22;8604;48.148;-1.786;2022-08-19T00:24:07;18.70;99.90
16976;DHT22;8604;48.148;-1.786;2022-08-19T00:26:37;18.70;99.90
16976;DHT22;8604;48.148;-1.786;2022-08-19T00:29:07;18.80;99.90
16976;DHT22;8604;48.148;-1.786;2022-08-19T00:31:36;18.80;99.90
16976;DHT22;8604;48.148;-1.786;2022-08-19T00:34:04;18.80;99.90
16976;DHT22;8604;48.148;-1.786;2022-08-19T00:36:32;18.80;99.90
16976;DHT22;8604;48.148;-1.786;2022-08-19T00:39:01;18.80;99.90
16976;DHT22;8604;48.148;-1.786;2022-08-19T00:41:30;18.80;99.90
16976;DHT22;8604;48.148;-1.786;2022-08-19T00:44:01;18.80;99.90
16976;DHT22;8604;48.148;-1.786;2022-08-19T00:46:31;18.80;99.90
16976;DHT22;8604;48.148;-1.786;2022-08-19T00:49:03;18.80;99.90
16976;DHT22;8604;48.148;-1.786;2022-08-19T00:51:34;18.80;99.90
16976;DHT22;8604;48.148;-1.786;2022-08-19T00:54:03;18.80;99.90
16976;DHT22;8604;48.148;-1.786;2022-08-19T00:56:33;18.80;99.90
16976;DHT22;8604;48.148;-1.786;2022-08-19T00:59:04;18.80;99.90
16976;DHT22;8604;48.148;-1.786;2022-08-19T01:01:36;18.80;99.90
16976;DHT22;8604;48.148;-1.786;2022-08-19T01:04:04;18.80;99.90
16976;DHT22;8604;48.148;-1.786;2022-08-19T01:06:33;18.80;99.90
16976;DHT22;8604;48.148;-1.786;2022-08-19T01:09:04;18.80;99.90
16976;DHT22;8604;48.148;-1.786;2022-08-19T01:11:37;18.80;99.90
16976;DHT22;8604;48.148;-1.786;2022-08-19T01:14:07;18.80;99.90
16976;DHT22;8604;48.148;-1.786;2022-08-19T01:16:37;18.80;99.90
16976;DHT22;8604;48.148;-1.786;2022-08-19T01:19:10;18.80;99.90
16976;DHT22;8604;48.148;-1.786;2022-08-19T01:21:45;18.80;99.90
16976;DHT22;8604;48.148;-1.786;2022-08-19T01:24:17;18.80;99.90
16976;DHT22;8604;48.148;-1.786;2022-08-19T01:26:45;18.80;99.90
16976;DHT22;8604;48.148;-1.786;2022-08-19T01:29:15;18.80;99.90
16976;DHT22;8604;48.148;-1.786;2022-08-19T01:31:43;18.90;99.90
16976;DHT22;8604;48.148;-1.786;2022-08-19T01:34:11;18.90;99.90
16976;DHT22;8604;48.148;-1.786;2022-08-19T01:36:42;18.90;99.90
16976;DHT22;8604;48.148;-1.786;2022-08-19T01:39:18;18.90;99.90
16976;DHT22;8604;48.148;-1.786;2022-08-19T01:41:48;18.90;99.90
16976;DHT22;8604;48.148;-1.786;2022-08-19T01:44:16;18.90;99.90
16976;DHT22;8604;48.148;-1.786;2022-08-19T01:46:48;18.90;99.90
16976;DHT22;8604;48.148;-1.786;2022-08-19T01:49:18;18.90;99.90
16976;DHT22;8604;48.148;-1.786;2022-08-19T01:51:46;18.90;99.90
16976;DHT22;8604;48.148;-1.786;2022-08-19T01:54:18;19.00;99.90
16976;DHT22;8604;48.148;-1.786;2022-08-19T01:56:57;18.90;99.90
16976;DHT22;8604;48.148;-1.786;2022-08-19T01:59:26;18.90;99.90
16976;DHT22;8604;48.148;-1.786;2022-08-19T02:01:54;18.90;99.90
16976;DHT22;8604;48.148;-1.786;2022-08-19T02:04:23;18.90;99.90
16976;DHT22;8604;48.148;-1.786;2022-08-19T02:06:52;18.90;99.90
16976;DHT22;8604;48.148;-1.786;2022-08-19T02:09:22;18.90;99.90
16976;DHT22;8604;48.148;-1.786;2022-08-19T02:11:50;19.00;99.90
16976;DHT22;8604;48.148;-1.786;2022-08-19T02:14:18;19.00;99.90
16976;DHT22;8604;48.148;-1.786;2022-08-19T02:16:47;19.00;99.90
16976;DHT22;8604;48.148;-1.786;2022-08-19T02:19:15;19.00;99.90
16976;DHT22;8604;48.148;-1.786;2022-08-19T02:21:44;19.00;99.90
16976;DHT22;8604;48.148;-1.786;2022-08-19T02:24:13;19.00;99.90
16976;DHT22;8604;48.148;-1.786;2022-08-19T02:26:42;19.00;99.90
16976;DHT22;8604;48.148;-1.786;2022-08-19T02:29:11;19.00;99.90
16976;DHT22;8604;48.148;-1.786;2022-08-19T02:31:39;19.00;99.90
16976;DHT22;8604;48.148;-1.786;2022-08-19T02:34:07;19.00;99.90
16976;DHT22;8604;48.148;-1.786;2022-08-19T02:36:36;19.00;99.90
16976;DHT22;8604;48.148;-1.786;2022-08-19T02:39:08;19.00;99.90
16976;DHT22;8604;48.148;-1.786;2022-08-19T02:41:36;19.00;99.90
16976;DHT22;8604;48.148;-1.786;2022-08-19T02:44:06;19.00;99.90
16976;DHT22;8604;48.148;-1.786;2022-08-19T02:46:54;19.00;99.90
16976;DHT22;8604;48.148;-1.786;2022-08-19T02:49:22;19.00;99.90
16976;DHT22;8604;48.148;-1.786;2022-08-19T02:51:51;19.00;99.90
16976;DHT22;8604;48.148;-1.786;2022-08-19T02:54:19;19.00;99.90
16976;DHT22;8604;48.148;-1.786;2022-08-19T02:56:48;19.00;99.90
16976;DHT22;8604;48.148;-1.786;2022-08-19T02:59:18;19.10;99.90
16976;DHT22;8604;48.148;-1.786;2022-08-19T03:01:49;19.00;99.90
16976;DHT22;8604;48.148;-1.786;2022-08-19T03:04:18;19.00;99.90
16976;DHT22;8604;48.148;-1.786;2022-08-19T03:06:47;19.00;99.90
16976;DHT22;8604;48.148;-1.786;2022-08-19T03:09:17;19.00;99.90
16976;DHT22;8604;48.148;-1.786;2022-08-19T03:11:45;19.00;99.90
16976;DHT22;8604;48.148;-1.786;2022-08-19T03:14:20;19.00;99.90
16976;DHT22;8604;48.148;-1.786;2022-08-19T03:16:50;19.00;99.90
16976;DHT22;8604;48.148;-1.786;2022-08-19T03:19:19;19.00;99.90
16976;DHT22;8604;48.148;-1.786;2022-08-19T03:21:49;19.00;99.90
16976;DHT22;8604;48.148;-1.786;2022-08-19T03:24:19;19.00;99.90
16976;DHT22;8604;48.148;-1.786;2022-08-19T03:26:50;19.00;99.90
16976;DHT22;8604;48.148;-1.786;2022-08-19T03:29:20;19.00;99.90
16976;DHT22;8604;48.148;-1.786;2022-08-19T03:31:57;19.10;99.90
16976;DHT22;8604;48.148;-1.786;2022-08-19T03:34:29;19.10;99.90
16976;DHT22;8604;48.148;-1.786;2022-08-19T03:36:59;19.10;99.90
16976;DHT22;8604;48.148;-1.786;2022-08-19T03:39:30;19.10;99.90
16976;DHT22;8604;48.148;-1.786;2022-08-19T03:41:59;19.10;99.90
16976;DHT22;8604;48.148;-1.786;2022-08-19T03:44:50;19.10;99.90
16976;DHT22;8604;48.148;-1.786;2022-08-19T03:47:19;19.10;99.90
16976;DHT22;8604;48.148;-1.786;2022-08-19T03:49:47;19.10;99.90
16976;DHT22;8604;48.148;-1.786;2022-08-19T03:52:16;19.10;99.90
16976;DHT22;8604;48.148;-1.786;2022-08-19T03:54:44;19.10;99.90
16976;DHT22;8604;48.148;-1.786;2022-08-19T03:57:12;19.10;99.90
16976;DHT22;8604;48.148;-1.786;2022-08-19T03:59:41;19.10;99.90
16976;DHT22;8604;48.148;-1.786;2022-08-19T04:02:12;19.10;99.90
16976;DHT22;8604;48.148;-1.786;2022-08-19T04:04:42;19.10;99.90
16976;DHT22;8604;48.148;-1.786;2022-08-19T04:07:12;19.10;99.90
16976;DHT22;8604;48.148;-1.786;2022-08-19T04:09:42;19.10;99.90
16976;DHT22;8604;48.148;-1.786;2022-08-19T04:12:11;19.10;99.90
16976;DHT22;8604;48.148;-1.786;2022-08-19T04:14:39;19.10;99.90
16976;DHT22;8604;48.148;-1.786;2022-08-19T04:17:08;19.10;99.90
16976;DHT22;8604;48.148;-1.786;2022-08-19T04:19:37;19.10;99.90
16976;DHT22;8604;48.148;-1.786;2022-08-19T04:22:06;19.10;99.90
16976;DHT22;8604;48.148;-1.786;2022-08-19T04:24:35;19.10;99.90
16976;DHT22;8604;48.148;-1.786;2022-08-19T04:27:04;19.10;99.90
16976;DHT22;8604;48.148;-1.786;2022-08-19T04:29:33;19.10;99.90
16976;DHT22;8604;48.148;-1.786;2022-08-19T04:32:02;19.10;99.90
16976;DHT22;8604;48.148;-1.786;2022-08-19T04:34:37;19.10;99.90
16976;DHT22;8604;48.148;-1.786;2022-08-19T04:37:26;19.10;99.90
16976;DHT22;8604;48.148;-1.786;2022-08-19T04:40:04;19.10;99.90
16976;DHT22;8604;48.148;-1.786;2022-08-19T04:42:50;19.10;99.90
16976;DHT22;8604;48.148;-1.786;2022-08-19T04:45:19;19.10;99.90
16976;DHT22;8604;48.148;-1.786;2022-08-19T04:47:49;19.10;99.90
16976;DHT22;8604;48.148;-1.786;2022-08-19T04:50:42;19.10;99.90
16976;DHT22;8604;48.148;-1.786;2022-08-19T04:53:10;19.10;99.90
16976;DHT22;8604;48.148;-1.786;2022-08-19T04:55:40;19.10;99.90
16976;DHT22;8604;48.148;-1.786;2022-08-19T04:58:08;19.10;99.90
16976;DHT22;8604;48.148;-1.786;2022-08-19T05:00:38;19.10;99.90
16976;DHT22;8604;48.148;-1.786;2022-08-19T05:03:08;19.10;99.90
16976;DHT22;8604;48.148;-1.786;2022-08-19T05:05:40;19.10;99.90
16976;DHT22;8604;48.148;-1.786;2022-08-19T05:08:12;19.10;99.90
16976;DHT22;8604;48.148;-1.786;2022-08-19T05:10:42;19.10;99.90
16976;DHT22;8604;48.148;-1.786;2022-08-19T05:13:11;19.10;99.90
16976;DHT22;8604;48.148;-1.786;2022-08-19T05:15:39;19.10;99.90
16976;DHT22;8604;48.148;-1.786;2022-08-19T05:18:08;19.10;99.90
16976;DHT22;8604;48.148;-1.786;2022-08-19T05:20:55;19.10;99.90
16976;DHT22;8604;48.148;-1.786;2022-08-19T05:23:41;19.10;99.90
16976;DHT22;8604;48.148;-1.786;2022-08-19T05:26:11;19.20;99.90
16976;DHT22;8604;48.148;-1.786;2022-08-19T05:28:39;19.20;99.90
16976;DHT22;8604;48.148;-1.786;2022-08-19T05:31:07;19.20;99.90
16976;DHT22;8604;48.148;-1.786;2022-08-19T05:33:36;19.20;99.90
16976;DHT22;8604;48.148;-1.786;2022-08-19T05:36:08;19.20;99.90
16976;DHT22;8604;48.148;-1.786;2022-08-19T05:38:36;19.20;99.90
16976;DHT22;8604;48.148;-1.786;2022-08-19T05:41:07;19.20;99.90
16976;DHT22;8604;48.148;-1.786;2022-08-19T05:43:36;19.20;99.90
16976;DHT22;8604;48.148;-1.786;2022-08-19T05:46:07;19.20;99.90
16976;DHT22;8604;48.148;-1.786;2022-08-19T05:48:45;19.20;99.90
16976;DHT22;8604;48.148;-1.786;2022-08-19T05:51:51;19.30;99.90
16976;DHT22;8604;48.148;-1.786;2022-08-19T05:54:34;19.30;99.90
16976;DHT22;8604;48.148;-1.786;2022-08-19T05:57:19;19.20;99.90
16976;DHT22;8604;48.148;-1.786;2022-08-19T05:59:49;19.30;99.90
16976;DHT22;8604;48.148;-1.786;2022-08-19T06:02:28;19.30;99.90
16976;DHT22;8604;48.148;-1.786;2022-08-19T06:05:16;19.30;99.90
16976;DHT22;8604;48.148;-1.786;2022-08-19T06:07:58;19.30;99.90
16976;DHT22;8604;48.148;-1.786;2022-08-19T06:10:41;19.30;99.90
16976;DHT22;8604;48.148;-1.786;2022-08-19T06:13:22;19.30;99.90
16976;DHT22;8604;48.148;-1.786;2022-08-19T06:16:18;19.30;99.90
16976;DHT22;8604;48.148;-1.786;2022-08-19T06:18:59;19.30;99.90
16976;DHT22;8604;48.148;-1.786;2022-08-19T06:21:39;19.30;99.90
16976;DHT22;8604;48.148;-1.786;2022-08-19T06:24:40;19.30;99.90
16976;DHT22;8604;48.148;-1.786;2022-08-19T06:27:26;19.30;99.90
16976;DHT22;8604;48.148;-1.786;2022-08-19T06:30:27;19.30;99.90
16976;DHT22;8604;48.148;-1.786;2022-08-19T06:32:59;19.40;99.90
16976;DHT22;8604;48.148;-1.786;2022-08-19T06:35:27;19.40;99.90
16976;DHT22;8604;48.148;-1.786;2022-08-19T06:38:21;19.50;99.90
16976;DHT22;8604;48.148;-1.786;2022-08-19T06:41:05;19.50;99.90
16976;DHT22;8604;48.148;-1.786;2022-08-19T06:43:41;19.50;99.90
16976;DHT22;8604;48.148;-1.786;2022-08-19T06:46:13;19.40;99.90
16976;DHT22;8604;48.148;-1.786;2022-08-19T06:48:42;19.50;99.90
16976;DHT22;8604;48.148;-1.786;2022-08-19T06:51:12;19.50;99.90
16976;DHT22;8604;48.148;-1.786;2022-08-19T06:53:45;19.60;99.90
16976;DHT22;8604;48.148;-1.786;2022-08-19T06:56:17;19.60;99.90
16976;DHT22;8604;48.148;-1.786;2022-08-19T06:58:46;19.70;99.90
16976;DHT22;8604;48.148;-1.786;2022-08-19T07:01:20;19.70;99.90
16976;DHT22;8604;48.148;-1.786;2022-08-19T07:03:48;19.70;99.90
16976;DHT22;8604;48.148;-1.786;2022-08-19T07:06:18;19.80;99.90
16976;DHT22;8604;48.148;-1.786;2022-08-19T07:09:08;19.80;99.90
16976;DHT22;8604;48.148;-1.786;2022-08-19T07:11:43;19.80;99.90
16976;DHT22;8604;48.148;-1.786;2022-08-19T07:14:13;19.80;99.90
16976;DHT22;8604;48.148;-1.786;2022-08-19T07:16:47;19.90;99.90
16976;DHT22;8604;48.148;-1.786;2022-08-19T07:19:16;19.90;99.90
16976;DHT22;8604;48.148;-1.786;2022-08-19T07:21:46;19.90;99.90
16976;DHT22;8604;48.148;-1.786;2022-08-19T07:24:16;19.90;99.90
16976;DHT22;8604;48.148;-1.786;2022-08-19T07:26:46;20.00;99.90
16976;DHT22;8604;48.148;-1.786;2022-08-19T07:29:19;20.00;99.90
16976;DHT22;8604;48.148;-1.786;2022-08-19T07:31:53;20.10;99.90
16976;DHT22;8604;48.148;-1.786;2022-08-19T07:34:23;20.10;99.90
16976;DHT22;8604;48.148;-1.786;2022-08-19T07:36:53;20.20;99.90
16976;DHT22;8604;48.148;-1.786;2022-08-19T07:39:24;20.20;99.90
16976;DHT22;8604;48.148;-1.786;2022-08-19T07:41:55;20.20;99.90
16976;DHT22;8604;48.148;-1.786;2022-08-19T07:44:24;20.30;99.90
16976;DHT22;8604;48.148;-1.786;2022-08-19T07:46:55;20.40;99.90
16976;DHT22;8604;48.148;-1.786;2022-08-19T07:49:24;20.50;99.90
16976;DHT22;8604;48.148;-1.786;2022-08-19T07:51:54;20.60;99.90
16976;DHT22;8604;48.148;-1.786;2022-08-19T07:54:25;20.70;99.90
16976;DHT22;8604;48.148;-1.786;2022-08-19T07:56:55;20.80;99.90
16976;DHT22;8604;48.148;-1.786;2022-08-19T07:59:24;20.90;99.90
16976;DHT22;8604;48.148;-1.786;2022-08-19T08:01:52;20.90;99.90
16976;DHT22;8604;48.148;-1.786;2022-08-19T08:04:21;20.90;99.90
16976;DHT22;8604;48.148;-1.786;2022-08-19T08:07:07;21.00;99.90
16976;DHT22;8604;48.148;-1.786;2022-08-19T08:09:57;21.10;99.90
16976;DHT22;8604;48.148;-1.786;2022-08-19T08:12:34;21.20;99.90
16976;DHT22;8604;48.148;-1.786;2022-08-19T08:15:06;21.20;99.90
16976;DHT22;8604;48.148;-1.786;2022-08-19T08:17:39;21.30;99.90
16976;DHT22;8604;48.148;-1.786;2022-08-19T08:20:16;21.30;99.90
16976;DHT22;8604;48.148;-1.786;2022-08-19T08:22:53;21.30;99.90
16976;DHT22;8604;48.148;-1.786;2022-08-19T08:25:39;21.40;99.90
16976;DHT22;8604;48.148;-1.786;2022-08-19T08:28:09;21.40;99.90
16976;DHT22;8604;48.148;-1.786;2022-08-19T08:30:44;21.50;99.90
16976;DHT22;8604;48.148;-1.786;2022-08-19T08:33:18;21.70;99.90
16976;DHT22;8604;48.148;-1.786;2022-08-19T08:36:01;22.30;99.90
16976;DHT22;8604;48.148;-1.786;2022-08-19T08:38:30;23.30;99.90
16976;DHT22;8604;48.148;-1.786;2022-08-19T08:41:11;24.00;99.90
16976;DHT22;8604;48.148;-1.786;2022-08-19T08:43:49;24.10;99.90
16976;DHT22;8604;48.148;-1.786;2022-08-19T08:46:22;24.70;99.90
16976;DHT22;8604;48.148;-1.786;2022-08-19T08:49:02;25.30;99.90
16976;DHT22;8604;48.148;-1.786;2022-08-19T08:51:39;25.30;99.90
16976;DHT22;8604;48.148;-1.786;2022-08-19T08:54:12;25.10;99.90
16976;DHT22;8604;48.148;-1.786;2022-08-19T08:56:42;24.90;99.90
16976;DHT22;8604;48.148;-1.786;2022-08-19T08:59:19;24.80;99.90
16976;DHT22;8604;48.148;-1.786;2022-08-19T09:01:48;24.60;99.90
16976;DHT22;8604;48.148;-1.786;2022-08-19T09:04:17;24.40;99.90
16976;DHT22;8604;48.148;-1.786;2022-08-19T09:06:51;24.30;99.90
16976;DHT22;8604;48.148;-1.786;2022-08-19T09:09:28;24.10;99.90
16976;DHT22;8604;48.148;-1.786;2022-08-19T09:12:06;23.90;99.90
16976;DHT22;8604;48.148;-1.786;2022-08-19T09:14:47;23.70;99.90
16976;DHT22;8604;48.148;-1.786;2022-08-19T09:17:21;23.60;99.90
16976;DHT22;8604;48.148;-1.786;2022-08-19T09:19:57;23.50;99.90
16976;DHT22;8604;48.148;-1.786;2022-08-19T09:22:28;23.40;99.90
16976;DHT22;8604;48.148;-1.786;2022-08-19T09:24:56;23.40;99.90
16976;DHT22;8604;48.148;-1.786;2022-08-19T09:27:26;23.50;99.90
16976;DHT22;8604;48.148;-1.786;2022-08-19T09:30:17;23.50;99.90
16976;DHT22;8604;48.148;-1.786;2022-08-19T09:32:47;23.50;99.90
16976;DHT22;8604;48.148;-1.786;2022-08-19T09:35:24;23.50;99.90
16976;DHT22;8604;48.148;-1.786;2022-08-19T09:37:58;23.30;99.90
16976;DHT22;8604;48.148;-1.786;2022-08-19T09:40:30;23.30;99.90
16976;DHT22;8604;48.148;-1.786;2022-08-19T09:43:05;23.30;99.90
16976;DHT22;8604;48.148;-1.786;2022-08-19T09:46:02;23.30;99.90
16976;DHT22;8604;48.148;-1.786;2022-08-19T09:48:33;23.50;99.90
16976;DHT22;8604;48.148;-1.786;2022-08-19T09:51:12;23.60;99.90
16976;DHT22;8604;48.148;-1.786;2022-08-19T09:53:43;23.70;99.90
16976;DHT22;8604;48.148;-1.786;2022-08-19T09:56:13;23.70;99.90
16976;DHT22;8604;48.148;-1.786;2022-08-19T09:59:03;23.50;99.90
16976;DHT22;8604;48.148;-1.786;2022-08-19T10:01:42;23.80;99.90
16976;DHT22;8604;48.148;-1.786;2022-08-19T10:04:12;24.00;99.90
16976;DHT22;8604;48.148;-1.786;2022-08-19T10:06:46;24.20;99.90
16976;DHT22;8604;48.148;-1.786;2022-08-19T10:09:20;24.20;99.90
16976;DHT22;8604;48.148;-1.786;2022-08-19T10:12:04;24.10;99.90
16976;DHT22;8604;48.148;-1.786;2022-08-19T10:14:37;24.00;99.90
16976;DHT22;8604;48.148;-1.786;2022-08-19T10:17:08;23.90;99.90
16976;DHT22;8604;48.148;-1.786;2022-08-19T10:19:46;23.80;99.90
16976;DHT22;8604;48.148;-1.786;2022-08-19T10:22:22;24.00;99.90
16976;DHT22;8604;48.148;-1.786;2022-08-19T10:24:52;24.20;99.90
16976;DHT22;8604;48.148;-1.786;2022-08-19T10:27:21;24.30;99.90
16976;DHT22;8604;48.148;-1.786;2022-08-19T10:30:07;24.20;99.90
16976;DHT22;8604;48.148;-1.786;2022-08-19T10:32:38;24.10;99.90
16976;DHT22;8604;48.148;-1.786;2022-08-19T10:35:13;24.00;99.90
16976;DHT22;8604;48.148;-1.786;2022-08-19T10:37:48;23.80;99.90
16976;DHT22;8604;48.148;-1.786;2022-08-19T10:40:28;23.70;99.90
16976;DHT22;8604;48.148;-1.786;2022-08-19T10:42:58;23.60;99.90
16976;DHT22;8604;48.148;-1.786;2022-08-19T10:45:26;23.50;99.90
16976;DHT22;8604;48.148;-1.786;2022-08-19T10:47:57;23.50;99.90
16976;DHT22;8604;48.148;-1.786;2022-08-19T10:50:26;23.50;99.90
16976;DHT22;8604;48.148;-1.786;2022-08-19T10:53:19;23.50;99.90
16976;DHT22;8604;48.148;-1.786;2022-08-19T10:55:52;23.40;99.90
16976;DHT22;8604;48.148;-1.786;2022-08-19T10:58:38;23.40;99.90
16976;DHT22;8604;48.148;-1.786;2022-08-19T11:01:20;23.40;99.90
16976;DHT22;8604;48.148;-1.786;2022-08-19T11:03:50;23.40;99.90
16976;DHT22;8604;48.148;-1.786;2022-08-19T11:06:19;23.30;99.90
16976;DHT22;8604;48.148;-1.786;2022-08-19T11:08:48;23.30;99.90
16976;DHT22;8604;48.148;-1.786;2022-08-19T11:11:18;23.20;99.90
16976;DHT22;8604;48.148;-1.786;2022-08-19T11:13:47;23.10;99.90
16976;DHT22;8604;48.148;-1.786;2022-08-19T11:16:20;22.90;99.90
16976;DHT22;8604;48.148;-1.786;2022-08-19T11:18:52;22.80;99.90
16976;DHT22;8604;48.148;-1.786;2022-08-19T11:21:24;22.90;99.90
16976;DHT22;8604;48.148;-1.786;2022-08-19T11:23:56;22.90;99.90
16976;DHT22;8604;48.148;-1.786;2022-08-19T11:26:54;23.00;99.90
16976;DHT22;8604;48.148;-1.786;2022-08-19T11:29:26;23.20;99.90
16976;DHT22;8604;48.148;-1.786;2022-08-19T11:31:54;23.30;99.90
16976;DHT22;8604;48.148;-1.786;2022-08-19T11:34:26;23.30;99.90
16976;DHT22;8604;48.148;-1.786;2022-08-19T11:36:56;23.30;99.90
16976;DHT22;8604;48.148;-1.786;2022-08-19T11:39:28;23.30;99.90
16976;DHT22;8604;48.148;-1.786;2022-08-19T11:41:58;23.20;99.90
16976;DHT22;8604;48.148;-1.786;2022-08-19T11:44:27;23.20;99.90
16976;DHT22;8604;48.148;-1.786;2022-08-19T11:46:57;23.30;99.90
16976;DHT22;8604;48.148;-1.786;2022-08-19T11:49:36;23.30;99.90
16976;DHT22;8604;48.148;-1.786;2022-08-19T11:52:05;23.40;99.90
16976;DHT22;8604;48.148;-1.786;2022-08-19T11:54:34;23.50;99.90
16976;DHT22;8604;48.148;-1.786;2022-08-19T11:57:04;23.50;99.90
16976;DHT22;8604;48.148;-1.786;2022-08-19T11:59:32;23.40;99.90
16976;DHT22;8604;48.148;-1.786;2022-08-19T12:02:00;23.30;99.90
16976;DHT22;8604;48.148;-1.786;2022-08-19T12:04:29;23.20;99.90
16976;DHT22;8604;48.148;-1.786;2022-08-19T12:06:59;23.20;99.90
16976;DHT22;8604;48.148;-1.786;2022-08-19T12:09:28;23.10;99.90
16976;DHT22;8604;48.148;-1.786;2022-08-19T12:11:58;23.10;99.90
16976;DHT22;8604;48.148;-1.786;2022-08-19T12:14:29;23.10;99.90
16976;DHT22;8604;48.148;-1.786;2022-08-19T12:16:58;23.10;99.90
16976;DHT22;8604;48.148;-1.786;2022-08-19T12:19:27;23.10;99.90
16976;DHT22;8604;48.148;-1.786;2022-08-19T12:22:00;23.20;99.90
16976;DHT22;8604;48.148;-1.786;2022-08-19T12:24:30;23.30;99.90
16976;DHT22;8604;48.148;-1.786;2022-08-19T12:26:59;23.50;99.90
16976;DHT22;8604;48.148;-1.786;2022-08-19T12:29:29;23.60;99.90
16976;DHT22;8604;48.148;-1.786;2022-08-19T12:31:58;23.70;99.90
16976;DHT22;8604;48.148;-1.786;2022-08-19T12:34:31;23.70;99.90
16976;DHT22;8604;48.148;-1.786;2022-08-19T12:37:04;23.70;99.90
16976;DHT22;8604;48.148;-1.786;2022-08-19T12:39:35;23.80;99.90
16976;DHT22;8604;48.148;-1.786;2022-08-19T12:42:04;23.90;99.90
16976;DHT22;8604;48.148;-1.786;2022-08-19T12:44:34;23.90;99.90
16976;DHT22;8604;48.148;-1.786;2022-08-19T12:47:03;23.90;99.90
16976;DHT22;8604;48.148;-1.786;2022-08-19T12:49:35;23.90;99.90
16976;DHT22;8604;48.148;-1.786;2022-08-19T12:52:24;23.90;99.90
16976;DHT22;8604;48.148;-1.786;2022-08-19T12:54:55;23.90;99.90
16976;DHT22;8604;48.148;-1.786;2022-08-19T12:57:26;23.90;99.90
16976;DHT22;8604;48.148;-1.786;2022-08-19T13:00:01;23.80;99.90
16976;DHT22;8604;48.148;-1.786;2022-08-19T13:02:32;23.70;99.90
16976;DHT22;8604;48.148;-1.786;2022-08-19T13:05:07;23.60;99.90
16976;DHT22;8604;48.148;-1.786;2022-08-19T13:07:39;23.50;99.90
16976;DHT22;8604;48.148;-1.786;2022-08-19T13:10:09;23.50;99.90
16976;DHT22;8604;48.148;-1.786;2022-08-19T13:12:38;23.40;99.90
16976;DHT22;8604;48.148;-1.786;2022-08-19T13:15:08;23.30;99.90
16976;DHT22;8604;48.148;-1.786;2022-08-19T13:17:39;23.30;99.90
16976;DHT22;8604;48.148;-1.786;2022-08-19T13:20:09;23.30;99.90
16976;DHT22;8604;48.148;-1.786;2022-08-19T13:22:39;23.30;99.90
16976;DHT22;8604;48.148;-1.786;2022-08-19T13:25:08;23.40;99.90
16976;DHT22;8604;48.148;-1.786;2022-08-19T13:27:37;23.60;99.90
16976;DHT22;8604;48.148;-1.786;2022-08-19T13:30:09;23.70;99.90
16976;DHT22;8604;48.148;-1.786;2022-08-19T13:32:56;23.60;99.90
16976;DHT22;8604;48.148;-1.786;2022-08-19T13:35:45;23.50;99.90
16976;DHT22;8604;48.148;-1.786;2022-08-19T13:38:17;23.40;99.90
16976;DHT22;8604;48.148;-1.786;2022-08-19T13:40:46;23.10;99.90
16976;DHT22;8604;48.148;-1.786;2022-08-19T13:43:18;22.50;99.90
16976;DHT22;8604;48.148;-1.786;2022-08-19T13:45:50;22.20;99.90
16976;DHT22;8604;48.148;-1.786;2022-08-19T13:48:24;21.90;99.90
16976;DHT22;8604;48.148;-1.786;2022-08-19T13:50:53;21.70;99.90
16976;DHT22;8604;48.148;-1.786;2022-08-19T13:53:23;21.50;99.90
16976;DHT22;8604;48.148;-1.786;2022-08-19T13:55:52;21.40;99.90
16976;DHT22;8604;48.148;-1.786;2022-08-19T13:58:21;21.30;99.90
16976;DHT22;8604;48.148;-1.786;2022-08-19T14:00:50;21.10;99.90
16976;DHT22;8604;48.148;-1.786;2022-08-19T14:03:19;21.10;99.90
16976;DHT22;8604;48.148;-1.786;2022-08-19T14:06:11;21.00;99.90
16976;DHT22;8604;48.148;-1.786;2022-08-19T14:08:41;21.10;99.90
16976;DHT22;8604;48.148;-1.786;2022-08-19T14:11:12;21.00;99.90
16976;DHT22;8604;48.148;-1.786;2022-08-19T14:13:41;20.90;99.90
16976;DHT22;8604;48.148;-1.786;2022-08-19T14:16:11;20.80;99.90
16976;DHT22;8604;48.148;-1.786;2022-08-19T14:18:39;20.70;99.90
16976;DHT22;8604;48.148;-1.786;2022-08-19T14:21:13;20.60;99.90
16976;DHT22;8604;48.148;-1.786;2022-08-19T14:23:44;20.50;99.90
16976;DHT22;8604;48.148;-1.786;2022-08-19T14:26:14;20.60;99.90
16976;DHT22;8604;48.148;-1.786;2022-08-19T14:28:44;20.50;99.90
16976;DHT22;8604;48.148;-1.786;2022-08-19T14:31:15;20.60;99.90
16976;DHT22;8604;48.148;-1.786;2022-08-19T14:33:45;20.50;99.90
16976;DHT22;8604;48.148;-1.786;2022-08-19T14:36:14;20.50;99.90
16976;DHT22;8604;48.148;-1.786;2022-08-19T14:38:44;20.40;99.90
16976;DHT22;8604;48.148;-1.786;2022-08-19T14:41:14;20.40;99.90
16976;DHT22;8604;48.148;-1.786;2022-08-19T14:43:45;20.30;99.90
16976;DHT22;8604;48.148;-1.786;2022-08-19T14:46:16;20.30;99.90
16976;DHT22;8604;48.148;-1.786;2022-08-19T14:48:46;20.20;99.90
16976;DHT22;8604;48.148;-1.786;2022-08-19T14:51:20;20.20;99.90
16976;DHT22;8604;48.148;-1.786;2022-08-19T14:53:50;20.10;99.90
16976;DHT22;8604;48.148;-1.786;2022-08-19T14:56:20;20.00;99.90
16976;DHT22;8604;48.148;-1.786;2022-08-19T14:58:49;20.00;99.90
16976;DHT22;8604;48.148;-1.786;2022-08-19T15:01:19;20.20;99.90
16976;DHT22;8604;48.148;-1.786;2022-08-19T15:03:49;20.30;99.90
16976;DHT22;8604;48.148;-1.786;2022-08-19T15:06:20;20.30;99.90
16976;DHT22;8604;48.148;-1.786;2022-08-19T15:08:51;20.40;99.90
16976;DHT22;8604;48.148;-1.786;2022-08-19T15:11:24;20.50;99.90
16976;DHT22;8604;48.148;-1.786;2022-08-19T15:13:55;20.30;99.90
16976;DHT22;8604;48.148;-1.786;2022-08-19T15:16:24;20.30;99.90
16976;DHT22;8604;48.148;-1.786;2022-08-19T15:19:09;20.40;99.90
16976;DHT22;8604;48.148;-1.786;2022-08-19T15:21:38;20.30;99.90
16976;DHT22;8604;48.148;-1.786;2022-08-19T15:24:08;20.20;99.90
16976;DHT22;8604;48.148;-1.786;2022-08-19T15:26:38;20.10;99.90
16976;DHT22;8604;48.148;-1.786;2022-08-19T15:29:06;20.00;99.90
16976;DHT22;8604;48.148;-1.786;2022-08-19T15:31:35;19.90;99.90
16976;DHT22;8604;48.148;-1.786;2022-08-19T15:34:05;19.90;99.90
16976;DHT22;8604;48.148;-1.786;2022-08-19T15:36:35;19.90;99.90
16976;DHT22;8604;48.148;-1.786;2022-08-19T15:39:04;19.90;99.90
16976;DHT22;8604;48.148;-1.786;2022-08-19T15:41:36;19.90;99.90
16976;DHT22;8604;48.148;-1.786;2022-08-19T15:44:09;19.80;99.90
16976;DHT22;8604;48.148;-1.786;2022-08-19T15:46:40;19.70;99.90
16976;DHT22;8604;48.148;-1.786;2022-08-19T15:49:12;19.60;99.90
16976;DHT22;8604;48.148;-1.786;2022-08-19T15:51:42;19.50;99.90
16976;DHT22;8604;48.148;-1.786;2022-08-19T15:54:25;19.50;99.90
16976;DHT22;8604;48.148;-1.786;2022-08-19T15:56:55;19.50;99.90
16976;DHT22;8604;48.148;-1.786;2022-08-19T15:59:47;19.50;99.90
16976;DHT22;8604;48.148;-1.786;2022-08-19T16:02:34;19.60;99.90
16976;DHT22;8604;48.148;-1.786;2022-08-19T16:05:21;19.70;99.90